THY6QN LTFM-LTAI
Flight info
| Callsign | THY6QN |
|---|---|
| Flight time | 0h 48m |
| Altitude | 35000 |
| Route | RATVU1D/35L RATVU UT35 BABSA |
| Aircraft | A320/M-SDE3FGHIRWY/LB1 |
Departure
| Time | 2026-05-05 15:13 |
|---|---|
| Airport | İstanbul Airport (LTFM) |
Arrival
| Time | 2026-05-05 16:02 |
|---|---|
| Airport | Antalya International Airport (LTAI) |
| Time | Latitude | Longitude | Altitude | Speed | Heading |
|---|---|---|---|---|---|
| 2026-05-05 14:40 | 41.26361 | 28.73979 | 330 ft | 0 kts | 179° |
| 2026-05-05 15:01 | 41.26377 | 28.73978 | 330 ft | 4 kts | 174° |
| 2026-05-05 15:02 | 41.26399 | 28.73975 | 332 ft | 0 kts | 187° |
| 2026-05-05 15:03 | 41.26415 | 28.73977 | 330 ft | 2 kts | 184° |
| 2026-05-05 15:03 | 41.26418 | 28.73977 | 330 ft | 0 kts | 184° |
| 2026-05-05 15:05 | 41.26416 | 28.73977 | 330 ft | 1 kts | 187° |
| 2026-05-05 15:06 | 41.26408 | 28.73964 | 329 ft | 4 kts | 233° |
| 2026-05-05 15:06 | 41.26427 | 28.73933 | 330 ft | 7 kts | 332° |
| 2026-05-05 15:06 | 41.26478 | 28.73908 | 333 ft | 9 kts | 340° |
| 2026-05-05 15:06 | 41.26544 | 28.73882 | 334 ft | 11 kts | 348° |
| 2026-05-05 15:07 | 41.26627 | 28.73878 | 330 ft | 13 kts | 358° |
| 2026-05-05 15:07 | 41.26725 | 28.73876 | 333 ft | 15 kts | 359° |
| 2026-05-05 15:07 | 41.26833 | 28.73873 | 331 ft | 13 kts | 359° |
| 2026-05-05 15:07 | 41.26929 | 28.73871 | 333 ft | 15 kts | 359° |
| 2026-05-05 15:08 | 41.27023 | 28.73865 | 331 ft | 10 kts | 344° |
| 2026-05-05 15:08 | 41.27050 | 28.73776 | 334 ft | 12 kts | 269° |
| 2026-05-05 15:08 | 41.27048 | 28.73655 | 334 ft | 14 kts | 269° |
| 2026-05-05 15:08 | 41.27047 | 28.73517 | 332 ft | 16 kts | 269° |
| 2026-05-05 15:09 | 41.27045 | 28.73360 | 333 ft | 18 kts | 269° |
| 2026-05-05 15:09 | 41.27043 | 28.73229 | 334 ft | 13 kts | 269° |
| 2026-05-05 15:09 | 41.27041 | 28.73104 | 334 ft | 14 kts | 269° |
| 2026-05-05 15:09 | 41.27004 | 28.72991 | 333 ft | 15 kts | 193° |
| 2026-05-05 15:10 | 41.26891 | 28.72989 | 332 ft | 17 kts | 179° |
| 2026-05-05 15:10 | 41.26769 | 28.72992 | 331 ft | 14 kts | 179° |
| 2026-05-05 15:10 | 41.26720 | 28.72959 | 333 ft | 6 kts | 249° |
| 2026-05-05 15:10 | 41.26717 | 28.72908 | 334 ft | 6 kts | 268° |
| 2026-05-05 15:11 | 41.26715 | 28.72842 | 334 ft | 8 kts | 268° |
| 2026-05-05 15:11 | 41.26714 | 28.72737 | 334 ft | 14 kts | 269° |
| 2026-05-05 15:11 | 41.26712 | 28.72603 | 331 ft | 15 kts | 268° |
| 2026-05-05 15:11 | 41.26735 | 28.72517 | 331 ft | 10 kts | 339° |
| 2026-05-05 15:12 | 41.26775 | 28.72513 | 331 ft | 0 kts | 358° |
| 2026-05-05 15:12 | 41.26776 | 28.72513 | 331 ft | 1 kts | 358° |
| 2026-05-05 15:12 | 41.26780 | 28.72513 | 332 ft | 0 kts | 358° |
| 2026-05-05 15:12 | 41.26893 | 28.72510 | 334 ft | 49 kts | 359° |
| 2026-05-05 15:13 | 41.27455 | 28.72497 | 332 ft | 110 kts | 359° |
| 2026-05-05 15:13 | 41.28381 | 28.72477 | 337 ft | 155 kts | 359° |
| 2026-05-05 15:13 | 41.29478 | 28.72452 | 820 ft | 156 kts | 359° |
| 2026-05-05 15:13 | 41.30555 | 28.72420 | 1518 ft | 152 kts | 360° |
| 2026-05-05 15:14 | 41.31614 | 28.72414 | 2099 ft | 154 kts | 0° |
| 2026-05-05 15:14 | 41.32758 | 28.72431 | 2392 ft | 176 kts | 0° |
| 2026-05-05 15:14 | 41.34057 | 28.72453 | 2635 ft | 198 kts | 0° |
| 2026-05-05 15:14 | 41.35527 | 28.72477 | 2899 ft | 223 kts | 0° |
| 2026-05-05 15:15 | 41.37148 | 28.72311 | 3318 ft | 244 kts | 340° |
| 2026-05-05 15:15 | 41.38499 | 28.70929 | 4052 ft | 254 kts | 304° |
| 2026-05-05 15:15 | 41.39013 | 28.68661 | 4934 ft | 263 kts | 276° |
| 2026-05-05 15:15 | 41.38937 | 28.66202 | 5807 ft | 269 kts | 267° |
| 2026-05-05 15:16 | 41.38688 | 28.63715 | 6654 ft | 273 kts | 266° |
| 2026-05-05 15:16 | 41.38435 | 28.61197 | 7442 ft | 276 kts | 268° |
| 2026-05-05 15:16 | 41.38018 | 28.58672 | 8209 ft | 287 kts | 250° |
| 2026-05-05 15:16 | 41.36825 | 28.56525 | 8943 ft | 302 kts | 223° |
| 2026-05-05 15:17 | 41.34907 | 28.55235 | 9682 ft | 313 kts | 192° |
| 2026-05-05 15:17 | 41.32743 | 28.55197 | 10317 ft | 321 kts | 174° |
| 2026-05-05 15:17 | 41.30432 | 28.55392 | 10518 ft | 345 kts | 177° |
| 2026-05-05 15:17 | 41.27968 | 28.55685 | 10665 ft | 367 kts | 170° |
| 2026-05-05 15:18 | 41.25423 | 28.56543 | 10821 ft | 386 kts | 158° |
| 2026-05-05 15:18 | 41.22941 | 28.57985 | 11295 ft | 393 kts | 153° |
| 2026-05-05 15:18 | 41.20444 | 28.59515 | 11897 ft | 397 kts | 153° |
| 2026-05-05 15:18 | 41.17929 | 28.61078 | 12517 ft | 400 kts | 153° |
| 2026-05-05 15:19 | 41.15399 | 28.62656 | 13146 ft | 404 kts | 153° |
| 2026-05-05 15:19 | 41.12842 | 28.64245 | 13784 ft | 408 kts | 153° |
| 2026-05-05 15:19 | 41.10259 | 28.65841 | 14354 ft | 411 kts | 153° |
| 2026-05-05 15:19 | 41.07647 | 28.67446 | 14945 ft | 413 kts | 153° |
| 2026-05-05 15:20 | 41.05033 | 28.69047 | 15587 ft | 414 kts | 154° |
| 2026-05-05 15:20 | 41.02407 | 28.70653 | 16191 ft | 416 kts | 154° |
| 2026-05-05 15:20 | 40.99773 | 28.72264 | 16790 ft | 419 kts | 154° |
| 2026-05-05 15:20 | 40.97120 | 28.73886 | 17395 ft | 421 kts | 154° |
| 2026-05-05 15:21 | 40.94486 | 28.75493 | 17998 ft | 423 kts | 154° |
| 2026-05-05 15:21 | 40.91768 | 28.77151 | 18573 ft | 426 kts | 154° |
| 2026-05-05 15:21 | 40.89063 | 28.78801 | 19093 ft | 429 kts | 154° |
| 2026-05-05 15:21 | 40.86348 | 28.80452 | 19611 ft | 431 kts | 154° |
| 2026-05-05 15:22 | 40.83650 | 28.82092 | 20109 ft | 434 kts | 154° |
| 2026-05-05 15:22 | 40.80898 | 28.83765 | 20562 ft | 437 kts | 154° |
| 2026-05-05 15:22 | 40.78125 | 28.85451 | 21016 ft | 440 kts | 154° |
| 2026-05-05 15:22 | 40.75331 | 28.87150 | 21460 ft | 443 kts | 154° |
| 2026-05-05 15:23 | 40.72527 | 28.88852 | 21886 ft | 445 kts | 154° |
| 2026-05-05 15:23 | 40.69705 | 28.90564 | 22295 ft | 447 kts | 154° |
| 2026-05-05 15:23 | 40.66873 | 28.92277 | 22709 ft | 450 kts | 154° |
| 2026-05-05 15:23 | 40.64021 | 28.94003 | 23101 ft | 452 kts | 154° |
| 2026-05-05 15:24 | 40.61161 | 28.95735 | 23490 ft | 454 kts | 154° |
| 2026-05-05 15:24 | 40.58289 | 28.97474 | 23888 ft | 454 kts | 154° |
| 2026-05-05 15:24 | 40.55411 | 28.99215 | 24237 ft | 455 kts | 155° |
| 2026-05-05 15:24 | 40.52531 | 29.00952 | 24563 ft | 457 kts | 155° |
| 2026-05-05 15:25 | 40.49634 | 29.02696 | 24876 ft | 459 kts | 155° |
| 2026-05-05 15:25 | 40.46728 | 29.04442 | 25195 ft | 460 kts | 155° |
| 2026-05-05 15:25 | 40.43810 | 29.06194 | 25513 ft | 462 kts | 155° |
| 2026-05-05 15:25 | 40.40881 | 29.07949 | 25829 ft | 464 kts | 155° |
| 2026-05-05 15:26 | 40.37940 | 29.09709 | 26142 ft | 465 kts | 155° |
| 2026-05-05 15:26 | 40.34994 | 29.11468 | 26518 ft | 466 kts | 155° |
| 2026-05-05 15:26 | 40.32042 | 29.13230 | 26938 ft | 465 kts | 155° |
| 2026-05-05 15:26 | 40.29105 | 29.14984 | 27375 ft | 464 kts | 155° |
| 2026-05-05 15:27 | 40.26171 | 29.16739 | 27825 ft | 463 kts | 155° |
| 2026-05-05 15:27 | 40.23249 | 29.18487 | 28285 ft | 462 kts | 155° |
| 2026-05-05 15:27 | 40.20332 | 29.20236 | 28750 ft | 460 kts | 155° |
| 2026-05-05 15:27 | 40.17420 | 29.21977 | 29215 ft | 459 kts | 155° |
| 2026-05-05 15:28 | 40.14518 | 29.23704 | 29690 ft | 458 kts | 155° |
| 2026-05-05 15:28 | 40.11602 | 29.25434 | 30006 ft | 462 kts | 155° |
| 2026-05-05 15:28 | 40.08683 | 29.27162 | 30438 ft | 460 kts | 155° |
| 2026-05-05 15:28 | 40.05772 | 29.28887 | 30873 ft | 458 kts | 155° |
| 2026-05-05 15:29 | 40.02875 | 29.30608 | 31262 ft | 458 kts | 155° |
| 2026-05-05 15:29 | 40.00016 | 29.32305 | 31631 ft | 457 kts | 155° |
| 2026-05-05 15:29 | 39.97123 | 29.34021 | 32009 ft | 457 kts | 156° |
| 2026-05-05 15:29 | 39.94222 | 29.35738 | 32379 ft | 457 kts | 156° |
| 2026-05-05 15:30 | 39.91320 | 29.37451 | 32753 ft | 457 kts | 156° |
| 2026-05-05 15:30 | 39.88410 | 29.39143 | 33084 ft | 458 kts | 157° |
| 2026-05-05 15:30 | 39.85475 | 29.40786 | 33428 ft | 459 kts | 158° |
| 2026-05-05 15:30 | 39.82532 | 29.42390 | 33814 ft | 459 kts | 158° |
| 2026-05-05 15:31 | 39.79586 | 29.43976 | 34160 ft | 458 kts | 158° |
| 2026-05-05 15:31 | 39.76637 | 29.45562 | 34453 ft | 459 kts | 158° |
| 2026-05-05 15:31 | 39.73693 | 29.47157 | 34730 ft | 459 kts | 158° |
| 2026-05-05 15:31 | 39.70744 | 29.48769 | 34984 ft | 460 kts | 158° |
| 2026-05-05 15:32 | 39.67791 | 29.50391 | 35054 ft | 463 kts | 158° |
| 2026-05-05 15:32 | 39.61754 | 29.53668 | 35076 ft | 477 kts | 159° |
| 2026-05-05 15:33 | 39.55600 | 29.56763 | 35077 ft | 477 kts | 160° |
| 2026-05-05 15:33 | 39.49374 | 29.59792 | 35073 ft | 477 kts | 160° |
| 2026-05-05 15:34 | 39.43162 | 29.62849 | 35071 ft | 478 kts | 160° |
| 2026-05-05 15:34 | 39.36947 | 29.65947 | 35072 ft | 479 kts | 160° |
| 2026-05-05 15:35 | 39.30723 | 29.69055 | 35078 ft | 479 kts | 160° |
| 2026-05-05 15:35 | 39.24495 | 29.72136 | 35081 ft | 480 kts | 160° |
| 2026-05-05 15:36 | 39.18260 | 29.75218 | 35071 ft | 480 kts | 160° |
| 2026-05-05 15:36 | 39.12016 | 29.78307 | 35069 ft | 481 kts | 160° |
| 2026-05-05 15:37 | 39.05755 | 29.81390 | 35071 ft | 482 kts | 160° |
| 2026-05-05 15:37 | 38.99495 | 29.84458 | 35083 ft | 481 kts | 160° |
| 2026-05-05 15:38 | 38.93243 | 29.87529 | 35070 ft | 481 kts | 160° |
| 2026-05-05 15:38 | 38.87026 | 29.90575 | 35071 ft | 481 kts | 160° |
| 2026-05-05 15:39 | 38.80753 | 29.93571 | 35075 ft | 481 kts | 161° |
| 2026-05-05 15:39 | 38.74472 | 29.96520 | 35069 ft | 481 kts | 161° |
| 2026-05-05 15:40 | 38.68190 | 29.99484 | 35067 ft | 481 kts | 161° |
| 2026-05-05 15:40 | 38.61917 | 30.02455 | 35066 ft | 481 kts | 161° |
| 2026-05-05 15:41 | 38.55646 | 30.05430 | 35064 ft | 481 kts | 161° |
| 2026-05-05 15:41 | 38.49370 | 30.08402 | 35048 ft | 483 kts | 161° |
| 2026-05-05 15:41 | 38.46184 | 30.09904 | 34946 ft | 492 kts | 161° |
| 2026-05-05 15:42 | 38.42991 | 30.11407 | 34828 ft | 484 kts | 161° |
| 2026-05-05 15:42 | 38.39875 | 30.12872 | 34608 ft | 472 kts | 161° |
| 2026-05-05 15:42 | 38.36816 | 30.14302 | 34364 ft | 464 kts | 161° |
| 2026-05-05 15:42 | 38.33799 | 30.15710 | 34145 ft | 459 kts | 161° |
| 2026-05-05 15:43 | 38.30809 | 30.17099 | 33887 ft | 457 kts | 161° |
| 2026-05-05 15:43 | 38.27824 | 30.18475 | 33564 ft | 456 kts | 162° |
| 2026-05-05 15:43 | 38.24845 | 30.19839 | 33015 ft | 455 kts | 162° |
| 2026-05-05 15:43 | 38.21866 | 30.21199 | 32456 ft | 453 kts | 162° |
| 2026-05-05 15:44 | 38.18904 | 30.22551 | 31882 ft | 452 kts | 162° |
| 2026-05-05 15:44 | 38.15950 | 30.23903 | 31248 ft | 451 kts | 163° |
| 2026-05-05 15:44 | 38.13012 | 30.25253 | 30630 ft | 446 kts | 163° |
| 2026-05-05 15:44 | 38.10111 | 30.26590 | 30009 ft | 441 kts | 162° |
| 2026-05-05 15:45 | 38.07390 | 30.28341 | 29292 ft | 438 kts | 146° |
| 2026-05-05 15:45 | 38.05083 | 30.30846 | 28650 ft | 435 kts | 139° |
| 2026-05-05 15:45 | 38.02894 | 30.33451 | 28096 ft | 426 kts | 139° |
| 2026-05-05 15:45 | 38.00759 | 30.36004 | 27562 ft | 416 kts | 138° |
| 2026-05-05 15:46 | 37.98675 | 30.38492 | 27040 ft | 408 kts | 138° |
| 2026-05-05 15:46 | 37.96621 | 30.40941 | 26525 ft | 404 kts | 138° |
| 2026-05-05 15:46 | 37.94582 | 30.43371 | 26038 ft | 401 kts | 138° |
| 2026-05-05 15:46 | 37.92551 | 30.45789 | 25537 ft | 402 kts | 138° |
| 2026-05-05 15:47 | 37.90518 | 30.48201 | 25048 ft | 399 kts | 138° |
| 2026-05-05 15:47 | 37.89183 | 30.49785 | 24728 ft | 396 kts | 138° |
| 2026-05-05 15:47 | 37.86506 | 30.52959 | 24102 ft | 392 kts | 138° |
| 2026-05-05 15:47 | 37.85192 | 30.54516 | 23790 ft | 390 kts | 138° |
| 2026-05-05 15:48 | 37.83219 | 30.56851 | 23272 ft | 387 kts | 138° |
| 2026-05-05 15:48 | 37.81261 | 30.59169 | 22716 ft | 383 kts | 138° |
| 2026-05-05 15:48 | 37.79326 | 30.61461 | 22196 ft | 380 kts | 138° |
| 2026-05-05 15:48 | 37.77403 | 30.63738 | 21665 ft | 377 kts | 138° |
| 2026-05-05 15:49 | 37.75495 | 30.65993 | 21150 ft | 374 kts | 138° |
| 2026-05-05 15:49 | 37.73601 | 30.68230 | 20634 ft | 371 kts | 138° |
| 2026-05-05 15:49 | 37.71774 | 30.70512 | 20134 ft | 368 kts | 131° |
| 2026-05-05 15:49 | 37.70244 | 30.73086 | 19645 ft | 365 kts | 122° |
| 2026-05-05 15:50 | 37.68943 | 30.75820 | 19135 ft | 362 kts | 127° |
| 2026-05-05 15:50 | 37.67151 | 30.77973 | 18547 ft | 353 kts | 150° |
| 2026-05-05 15:50 | 37.64975 | 30.79351 | 17912 ft | 347 kts | 156° |
| 2026-05-05 15:50 | 37.62816 | 30.80651 | 17333 ft | 340 kts | 155° |
| 2026-05-05 15:51 | 37.60717 | 30.81954 | 16809 ft | 333 kts | 155° |
| 2026-05-05 15:51 | 37.58664 | 30.83251 | 16293 ft | 326 kts | 155° |
| 2026-05-05 15:51 | 37.56686 | 30.84506 | 15783 ft | 320 kts | 154° |
| 2026-05-05 15:51 | 37.54715 | 30.85760 | 15296 ft | 314 kts | 154° |
| 2026-05-05 15:52 | 37.52787 | 30.86982 | 14914 ft | 305 kts | 155° |
| 2026-05-05 15:52 | 37.50915 | 30.88164 | 14553 ft | 297 kts | 155° |
| 2026-05-05 15:52 | 37.49096 | 30.89312 | 14198 ft | 289 kts | 155° |
| 2026-05-05 15:52 | 37.47300 | 30.90443 | 13621 ft | 293 kts | 155° |
| 2026-05-05 15:53 | 37.45418 | 30.91304 | 13259 ft | 282 kts | 169° |
| 2026-05-05 15:53 | 37.43516 | 30.91552 | 13026 ft | 267 kts | 184° |
| 2026-05-05 15:53 | 37.41703 | 30.91257 | 12691 ft | 261 kts | 198° |
| 2026-05-05 15:53 | 37.40004 | 30.90550 | 12525 ft | 254 kts | 202° |
| 2026-05-05 15:54 | 37.38330 | 30.89826 | 12082 ft | 259 kts | 201° |
| 2026-05-05 15:54 | 37.36568 | 30.89066 | 11372 ft | 274 kts | 201° |
| 2026-05-05 15:54 | 37.34743 | 30.88284 | 10640 ft | 280 kts | 201° |
| 2026-05-05 15:54 | 37.32878 | 30.87488 | 9911 ft | 286 kts | 200° |
| 2026-05-05 15:55 | 37.30992 | 30.86698 | 9138 ft | 291 kts | 196° |
| 2026-05-05 15:55 | 37.29040 | 30.86156 | 8707 ft | 283 kts | 192° |
| 2026-05-05 15:55 | 37.27146 | 30.85665 | 8287 ft | 274 kts | 193° |
| 2026-05-05 15:55 | 37.25303 | 30.85188 | 7887 ft | 267 kts | 192° |
| 2026-05-05 15:56 | 37.23509 | 30.84725 | 7512 ft | 260 kts | 193° |
| 2026-05-05 15:56 | 37.21754 | 30.84270 | 7137 ft | 255 kts | 193° |
| 2026-05-05 15:56 | 37.20037 | 30.83824 | 6762 ft | 249 kts | 193° |
| 2026-05-05 15:56 | 37.18359 | 30.83388 | 6399 ft | 244 kts | 193° |
| 2026-05-05 15:57 | 37.16709 | 30.82983 | 6014 ft | 239 kts | 190° |
| 2026-05-05 15:57 | 37.15071 | 30.82708 | 5627 ft | 235 kts | 187° |
| 2026-05-05 15:57 | 37.13456 | 30.82486 | 5241 ft | 232 kts | 187° |
| 2026-05-05 15:57 | 37.11856 | 30.82268 | 4817 ft | 230 kts | 187° |
| 2026-05-05 15:58 | 37.10255 | 30.82048 | 4417 ft | 230 kts | 187° |
| 2026-05-05 15:58 | 37.08702 | 30.81834 | 4084 ft | 224 kts | 187° |
| 2026-05-05 15:58 | 37.07140 | 30.81619 | 3562 ft | 228 kts | 187° |
| 2026-05-05 15:58 | 37.05538 | 30.81398 | 3014 ft | 233 kts | 187° |
| 2026-05-05 15:59 | 37.03943 | 30.81178 | 2650 ft | 227 kts | 186° |
| 2026-05-05 15:59 | 37.02413 | 30.80968 | 2338 ft | 214 kts | 186° |
| 2026-05-05 15:59 | 37.00979 | 30.80771 | 2104 ft | 200 kts | 187° |
| 2026-05-05 15:59 | 36.99634 | 30.80586 | 1819 ft | 190 kts | 186° |
| 2026-05-05 16:00 | 36.98353 | 30.80410 | 1554 ft | 179 kts | 186° |
| 2026-05-05 16:00 | 36.97147 | 30.80244 | 1299 ft | 168 kts | 186° |
| 2026-05-05 16:00 | 36.96034 | 30.80091 | 1087 ft | 154 kts | 186° |
| 2026-05-05 16:00 | 36.95025 | 30.79952 | 916 ft | 142 kts | 186° |
| 2026-05-05 16:01 | 36.94059 | 30.79820 | 719 ft | 138 kts | 187° |
| 2026-05-05 16:01 | 36.93111 | 30.79690 | 534 ft | 136 kts | 186° |
| 2026-05-05 16:01 | 36.92177 | 30.79562 | 358 ft | 134 kts | 186° |
| 2026-05-05 16:01 | 36.91251 | 30.79433 | 204 ft | 134 kts | 187° |
| 2026-05-05 16:02 | 36.90458 | 30.79324 | 178 ft | 91 kts | 186° |
| 2026-05-05 16:02 | 36.89996 | 30.79261 | 178 ft | 50 kts | 186° |
| 2026-05-05 16:02 | 36.89708 | 30.79223 | 179 ft | 33 kts | 183° |
| 2026-05-05 16:02 | 36.89544 | 30.79257 | 178 ft | 16 kts | 162° |
| 2026-05-05 16:03 | 36.89464 | 30.79299 | 178 ft | 8 kts | 157° |
| 2026-05-05 16:03 | 36.89460 | 30.79301 | 178 ft | 0 kts | 157° |
| 2026-05-05 16:04 | 36.89452 | 30.79306 | 178 ft | 3 kts | 157° |
| 2026-05-05 16:04 | 36.89424 | 30.79321 | 178 ft | 6 kts | 156° |
| 2026-05-05 16:04 | 36.89400 | 30.79371 | 177 ft | 9 kts | 70° |
| 2026-05-05 16:05 | 36.89463 | 30.79408 | 177 ft | 11 kts | 6° |
| 2026-05-05 16:05 | 36.89548 | 30.79420 | 177 ft | 13 kts | 6° |
| 2026-05-05 16:05 | 36.89649 | 30.79434 | 176 ft | 16 kts | 6° |
| 2026-05-05 16:05 | 36.89767 | 30.79450 | 176 ft | 18 kts | 6° |
| 2026-05-05 16:06 | 36.89892 | 30.79468 | 176 ft | 15 kts | 6° |
| 2026-05-05 16:06 | 36.90006 | 30.79484 | 176 ft | 18 kts | 7° |
| 2026-05-05 16:06 | 36.90137 | 30.79501 | 176 ft | 16 kts | 8° |
| 2026-05-05 16:06 | 36.90246 | 30.79516 | 176 ft | 17 kts | 6° |
| 2026-05-05 16:07 | 36.90368 | 30.79533 | 176 ft | 19 kts | 5° |
| 2026-05-05 16:07 | 36.90506 | 30.79552 | 176 ft | 21 kts | 7° |
| 2026-05-05 16:07 | 36.90645 | 30.79572 | 176 ft | 20 kts | 7° |
| 2026-05-05 16:07 | 36.90766 | 30.79587 | 176 ft | 18 kts | 6° |
| 2026-05-05 16:08 | 36.90892 | 30.79604 | 176 ft | 17 kts | 6° |
| 2026-05-05 16:08 | 36.91015 | 30.79622 | 176 ft | 19 kts | 7° |
| 2026-05-05 16:08 | 36.91148 | 30.79640 | 176 ft | 17 kts | 6° |
| 2026-05-05 16:08 | 36.91206 | 30.79731 | 175 ft | 17 kts | 90° |
| 2026-05-05 16:09 | 36.91199 | 30.79833 | 175 ft | 7 kts | 96° |
| 2026-05-05 16:09 | 36.91238 | 30.79880 | 175 ft | 10 kts | 10° |
| 2026-05-05 16:09 | 36.91304 | 30.79907 | 175 ft | 10 kts | 71° |
| 2026-05-05 16:09 | 36.91297 | 30.80005 | 175 ft | 12 kts | 95° |
| 2026-05-05 16:10 | 36.91293 | 30.80052 | 175 ft | 2 kts | 97° |
| 2026-05-05 16:10 | 36.91292 | 30.80064 | 175 ft | 0 kts | 97° |